Time,TemperatureF,DewpointF,PressureIn,WindDirection,WindDirectionDegrees,WindSpeedMPH,WindSpeedGustMPH,Humidity,HourlyPrecipIn,Conditions,Clouds,dailyrainin,SolarRadiationWatts/m^2,SoftwareType,DateUTC
2013-03-21 00:01:00,36.6,33.7,30.00,SE,132,1.0,3.0,89,0.00,,,0.00,0,WeatherCatV1.14B232,2013-03-21 00:01:00,
2013-03-21 00:06:00,36.7,33.8,30.00,SE,131,0.0,2.0,89,0.00,,,0.00,0,WeatherCatV1.14B232,2013-03-21 00:06:00,
2013-03-21 00:11:00,36.7,33.8,30.00,SE,134,0.0,2.0,89,0.00,,,0.00,0,WeatherCatV1.14B232,2013-03-21 00:11:00,
2013-03-21 00:16:00,36.7,33.8,30.00,SE,134,0.0,2.0,89,0.00,,,0.00,0,WeatherCatV1.14B232,2013-03-21 00:16:00,
2013-03-21 00:21:00,36.7,33.8,30.00,SE,128,1.0,4.0,89,0.00,,,0.00,0,WeatherCatV1.14B232,2013-03-21 00:21:00,
2013-03-21 00:26:00,36.7,33.5,30.00,ESE,123,1.0,1.0,88,0.00,,,0.00,0,WeatherCatV1.14B232,2013-03-21 00:26:00,
2013-03-21 00:31:00,36.6,33.4,30.00,SE,126,2.0,4.0,88,0.00,,,0.00,0,WeatherCatV1.14B232,2013-03-21 00:31:00,
2013-03-21 00:36:00,36.6,33.4,30.00,ESE,120,1.0,4.0,88,0.00,,,0.00,0,WeatherCatV1.14B232,2013-03-21 00:36:00,
2013-03-21 00:41:00,36.6,33.4,30.01,SE,134,1.0,2.0,88,0.00,,,0.00,0,WeatherCatV1.14B232,2013-03-21 00:41:00,
2013-03-21 00:46:00,36.6,33.1,30.01,SE,130,1.0,4.0,87,0.00,,,0.00,0,WeatherCatV1.14B232,2013-03-21 00:46:00,
2013-03-21 00:51:00,36.6,33.1,30.01,SE,132,1.0,2.0,87,0.00,,,0.00,0,WeatherCatV1.14B232,2013-03-21 00:51:00,
2013-03-21 00:56:00,36.6,33.1,30.01,SE,128,2.0,3.0,87,0.00,,,0.00,0,WeatherCatV1.14B232,2013-03-21 00:56:00,
2013-03-21 01:01:00,36.5,33.0,30.01,SE,137,3.0,4.0,87,0.00,,,0.00,0,WeatherCatV1.14B232,2013-03-21 01:01:00,
2013-03-21 01:06:00,36.4,32.9,30.01,ESE,122,2.0,3.0,87,0.00,,,0.00,0,WeatherCatV1.14B232,2013-03-21 01:06:00,
2013-03-21 01:11:00,36.4,32.9,30.01,SE,126,2.0,4.0,87,0.00,,,0.00,0,WeatherCatV1.14B232,2013-03-21 01:11:00,
2013-03-21 01:16:00,36.2,32.7,30.01,SE,129,2.0,3.0,87,0.00,,,0.00,0,WeatherCatV1.14B232,2013-03-21 01:16:00,
2013-03-21 01:21:00,36.0,32.5,30.01,SE,134,0.0,3.0,87,0.00,,,0.00,0,WeatherCatV1.14B232,2013-03-21 01:21:00,
2013-03-21 01:26:00,35.9,32.4,30.00,SE,130,1.0,2.0,87,0.00,,,0.00,0,WeatherCatV1.14B232,2013-03-21 01:26:00,
2013-03-21 01:31:00,35.7,32.2,30.01,SE,127,1.0,2.0,87,0.00,,,0.00,0,WeatherCatV1.14B232,2013-03-21 01:31:00,
2013-03-21 01:36:00,35.7,32.5,30.01,SE,127,0.0,2.0,88,0.00,,,0.00,0,WeatherCatV1.14B232,2013-03-21 01:36:00,
2013-03-21 01:41:00,35.6,32.1,30.01,SE,127,0.0,1.0,87,0.00,,,0.00,0,WeatherCatV1.14B232,2013-03-21 01:41:00,
2013-03-21 01:46:00,35.6,32.4,30.01,SE,127,0.0,1.0,88,0.00,,,0.00,0,WeatherCatV1.14B232,2013-03-21 01:46:00,
2013-03-21 01:51:00,35.6,32.4,30.01,SE,127,0.0,0.0,88,0.00,,,0.00,0,WeatherCatV1.14B232,2013-03-21 01:51:00,
2013-03-21 01:56:00,35.5,32.3,30.01,SE,127,0.0,0.0,88,0.00,,,0.00,0,WeatherCatV1.14B232,2013-03-21 01:56:00,
2013-03-21 02:01:00,35.3,32.4,30.01,SE,126,0.0,0.0,89,0.00,,,0.00,0,WeatherCatV1.14B232,2013-03-21 02:01:00,
2013-03-21 02:06:00,35.0,32.1,30.01,SE,127,0.0,0.0,89,0.00,,,0.00,0,WeatherCatV1.14B232,2013-03-21 02:06:00,
2013-03-21 02:11:00,34.8,31.9,30.01,SE,127,0.0,0.0,89,0.00,,,0.00,0,WeatherCatV1.14B232,2013-03-21 02:11:00,
2013-03-21 02:16:00,34.6,32.0,30.01,SE,127,0.0,0.0,90,0.00,,,0.00,0,WeatherCatV1.14B232,2013-03-21 02:16:00,
2013-03-21 02:21:00,34.4,31.8,30.00,SE,127,0.0,0.0,90,0.00,,,0.00,0,WeatherCatV1.14B232,2013-03-21 02:21:00,
2013-03-21 02:26:00,34.2,31.6,30.00,SE,127,0.0,0.0,90,0.00,,,0.00,0,WeatherCatV1.14B232,2013-03-21 02:26:00,
2013-03-21 02:31:00,34.1,31.5,30.00,SE,126,0.0,0.0,90,0.00,,,0.00,0,WeatherCatV1.14B232,2013-03-21 02:31:00,
2013-03-21 02:36:00,34.0,31.7,30.00,SE,127,0.0,1.0,91,0.00,,,0.00,0,WeatherCatV1.14B232,2013-03-21 02:36:00,
2013-03-21 02:41:00,33.9,31.6,30.00,SE,127,0.0,0.0,91,0.00,,,0.00,0,WeatherCatV1.14B232,2013-03-21 02:41:00,
2013-03-21 02:46:00,33.8,31.5,30.01,SE,127,0.0,0.0,91,0.00,,,0.00,0,WeatherCatV1.14B232,2013-03-21 02:46:00,
2013-03-21 02:51:00,33.7,31.4,30.01,SE,127,0.0,0.0,91,0.00,,,0.00,0,WeatherCatV1.14B232,2013-03-21 02:51:00,
2013-03-21 02:56:00,33.7,31.4,30.00,SE,127,0.0,0.0,91,0.00,,,0.00,0,WeatherCatV1.14B232,2013-03-21 02:56:00,
2013-03-21 03:01:00,33.5,31.2,30.00,SE,127,0.0,0.0,91,0.00,,,0.00,0,WeatherCatV1.14B232,2013-03-21 03:01:00,
2013-03-21 03:06:00,33.4,31.1,30.00,SE,127,0.0,1.0,91,0.00,,,0.00,0,WeatherCatV1.14B232,2013-03-21 03:06:00,
2013-03-21 03:11:00,33.3,31.2,30.00,SE,127,0.0,1.0,92,0.00,,,0.00,0,WeatherCatV1.14B232,2013-03-21 03:11:00,
2013-03-21 03:16:00,33.3,31.2,30.00,SE,127,0.0,1.0,92,0.00,,,0.00,0,WeatherCatV1.14B232,2013-03-21 03:16:00,
2013-03-21 03:21:00,33.3,31.2,30.00,SE,127,0.0,1.0,92,0.00,,,0.00,0,WeatherCatV1.14B232,2013-03-21 03:21:00,
2013-03-21 03:26:00,33.2,31.1,30.00,SE,130,0.0,1.0,92,0.00,,,0.00,0,WeatherCatV1.14B232,2013-03-21 03:26:00,
2013-03-21 03:31:00,33.3,31.2,30.00,SE,130,0.0,1.0,92,0.00,,,0.00,0,WeatherCatV1.14B232,2013-03-21 03:31:00,
2013-03-21 03:36:00,33.2,31.1,30.00,SE,130,0.0,1.0,92,0.00,,,0.00,0,WeatherCatV1.14B232,2013-03-21 03:36:00,
2013-03-21 03:41:00,33.2,31.1,29.99,SE,130,0.0,0.0,92,0.00,,,0.00,0,WeatherCatV1.14B232,2013-03-21 03:41:00,
2013-03-21 03:46:00,33.1,31.0,30.00,SE,130,0.0,1.0,92,0.00,,,0.00,0,WeatherCatV1.14B232,2013-03-21 03:46:00,
2013-03-21 03:51:00,33.1,31.0,30.00,SE,130,0.0,0.0,92,0.00,,,0.00,0,WeatherCatV1.14B232,2013-03-21 03:51:00,
2013-03-21 03:56:00,33.1,31.3,30.00,SE,130,0.0,1.0,93,0.00,,,0.00,0,WeatherCatV1.14B232,2013-03-21 03:56:00,
2013-03-21 04:00:00,33.1,31.3,30.00,SE,130,1.0,1.0,93,0.00,,,0.00,0,WeatherCatV1.14B232,2013-03-21 04:00:00,
2013-03-21 04:01:00,33.1,31.3,30.00,SE,130,0.0,1.0,93,0.00,,,0.00,0,WeatherCatV1.14B232,2013-03-21 04:01:00,
2013-03-21 04:06:00,33.2,31.4,30.00,SE,130,1.0,2.0,93,0.00,,,0.00,0,WeatherCatV1.14B232,2013-03-21 04:06:00,
2013-03-21 04:11:00,33.2,31.4,30.00,SE,130,0.0,2.0,93,0.00,,,0.00,0,WeatherCatV1.14B232,2013-03-21 04:11:00,
2013-03-21 04:16:00,33.3,31.5,30.00,SE,130,1.0,1.0,93,0.00,,,0.00,0,WeatherCatV1.14B232,2013-03-21 04:16:00,
2013-03-21 04:21:00,33.2,31.4,30.00,SE,130,0.0,2.0,93,0.00,,,0.00,0,WeatherCatV1.14B232,2013-03-21 04:21:00,
2013-03-21 04:26:00,33.2,31.4,30.00,SE,130,0.0,1.0,93,0.00,,,0.00,0,WeatherCatV1.14B232,2013-03-21 04:26:00,
2013-03-21 04:31:00,33.2,31.4,30.00,SE,126,0.0,2.0,93,0.00,,,0.00,0,WeatherCatV1.14B232,2013-03-21 04:31:00,
2013-03-21 04:36:00,33.1,31.3,30.00,SE,126,0.0,1.0,93,0.00,,,0.00,0,WeatherCatV1.14B232,2013-03-21 04:36:00,
2013-03-21 04:41:00,33.0,31.2,30.00,SE,126,0.0,2.0,93,0.00,,,0.00,0,WeatherCatV1.14B232,2013-03-21 04:41:00,
2013-03-21 04:46:00,33.0,31.2,30.00,SE,126,0.0,2.0,93,0.00,,,0.00,0,WeatherCatV1.14B232,2013-03-21 04:46:00,
2013-03-21 04:51:00,33.0,31.2,30.00,SE,126,1.0,1.0,93,0.00,,,0.00,0,WeatherCatV1.14B232,2013-03-21 04:51:00,
2013-03-21 04:56:00,33.0,31.2,30.00,SE,126,0.0,2.0,93,0.00,,,0.00,0,WeatherCatV1.14B232,2013-03-21 04:56:00,
2013-03-21 05:01:00,33.0,31.2,30.00,SE,126,0.0,2.0,93,0.00,,,0.00,0,WeatherCatV1.14B232,2013-03-21 05:01:00,
2013-03-21 05:06:00,33.1,31.6,30.00,SE,126,0.0,2.0,94,0.00,,,0.00,0,WeatherCatV1.14B232,2013-03-21 05:06:00,
2013-03-21 05:11:00,33.1,31.6,30.00,SE,128,0.0,4.0,94,0.00,,,0.00,0,WeatherCatV1.14B232,2013-03-21 05:11:00,
2013-03-21 05:16:00,33.2,31.7,30.01,SE,128,0.0,2.0,94,0.00,,,0.00,0,WeatherCatV1.14B232,2013-03-21 05:16:00,
2013-03-21 05:21:00,33.3,31.8,30.01,SE,128,0.0,0.0,94,0.00,,,0.00,0,WeatherCatV1.14B232,2013-03-21 05:21:00,
2013-03-21 05:26:00,33.4,31.9,30.02,SE,128,0.0,1.0,94,0.00,,,0.00,0,WeatherCatV1.14B232,2013-03-21 05:26:00,
2013-03-21 05:31:00,33.4,31.9,30.01,SE,128,2.0,2.0,94,0.00,,,0.00,0,WeatherCatV1.14B232,2013-03-21 05:31:00,
2013-03-21 05:36:00,33.5,31.7,30.02,SE,126,1.0,3.0,93,0.00,,,0.00,0,WeatherCatV1.14B232,2013-03-21 05:36:00,
2013-03-21 05:41:00,33.6,32.1,30.02,SE,126,0.0,1.0,94,0.00,,,0.00,0,WeatherCatV1.14B232,2013-03-21 05:41:00,
2013-03-21 05:46:00,33.7,32.2,30.02,SE,126,0.0,2.0,94,0.00,,,0.00,0,WeatherCatV1.14B232,2013-03-21 05:46:00,
2013-03-21 05:51:00,33.8,32.3,30.02,SE,126,0.0,2.0,94,0.00,,,0.00,0,WeatherCatV1.14B232,2013-03-21 05:51:00,
2013-03-21 05:56:00,33.8,32.3,30.02,SE,126,0.0,1.0,94,0.00,,,0.00,0,WeatherCatV1.14B232,2013-03-21 05:56:00,
2013-03-21 06:01:00,33.9,32.1,30.02,SE,126,0.0,1.0,93,0.00,,,0.00,0,WeatherCatV1.14B232,2013-03-21 06:01:00,
2013-03-21 06:06:00,33.9,32.1,30.02,SE,132,0.0,3.0,93,0.00,,,0.00,0,WeatherCatV1.14B232,2013-03-21 06:06:00,
2013-03-21 06:11:00,33.9,32.1,30.02,SE,132,1.0,1.0,93,0.00,,,0.00,5,WeatherCatV1.14B232,2013-03-21 06:11:00,
2013-03-21 06:16:00,33.9,32.1,30.01,SE,133,1.0,2.0,93,0.00,,,0.00,7,WeatherCatV1.14B232,2013-03-21 06:16:00,
2013-03-21 06:21:00,34.0,32.2,30.01,SE,133,2.0,3.0,93,0.00,,,0.00,11,WeatherCatV1.14B232,2013-03-21 06:21:00,
2013-03-21 06:26:00,34.1,32.3,30.01,SE,128,0.0,2.0,93,0.00,,,0.00,16,WeatherCatV1.14B232,2013-03-21 06:26:00,
2013-03-21 06:31:00,34.2,32.4,30.01,SE,131,1.0,2.0,93,0.00,,,0.00,21,WeatherCatV1.14B232,2013-03-21 06:31:00,
2013-03-21 06:36:00,34.3,32.5,30.01,SE,127,0.0,4.0,93,0.00,,,0.00,30,WeatherCatV1.14B232,2013-03-21 06:36:00,
2013-03-21 06:41:00,34.3,32.5,30.01,SE,127,0.0,3.0,93,0.00,,,0.00,33,WeatherCatV1.14B232,2013-03-21 06:41:00,
2013-03-21 06:46:00,34.3,32.5,30.01,SE,132,3.0,4.0,93,0.00,,,0.00,39,WeatherCatV1.14B232,2013-03-21 06:46:00,
2013-03-21 06:51:00,34.3,32.5,30.01,SE,129,1.0,3.0,93,0.00,,,0.00,44,WeatherCatV1.14B232,2013-03-21 06:51:00,
2013-03-21 06:56:00,34.3,32.5,30.01,SE,134,0.0,3.0,93,0.00,,,0.00,46,WeatherCatV1.14B232,2013-03-21 06:56:00,
2013-03-21 07:01:00,34.4,32.6,30.01,SE,128,0.0,1.0,93,0.00,,,0.00,49,WeatherCatV1.14B232,2013-03-21 07:01:00,
2013-03-21 07:06:00,34.4,32.6,30.02,SE,128,0.0,2.0,93,0.00,,,0.00,54,WeatherCatV1.14B232,2013-03-21 07:06:00,
2013-03-21 07:11:00,34.6,32.8,30.01,SE,128,6.0,6.0,93,0.00,,,0.00,58,WeatherCatV1.14B232,2013-03-21 07:11:00,
2013-03-21 07:16:00,34.7,32.9,30.02,SE,128,1.0,3.0,93,0.00,,,0.00,65,WeatherCatV1.14B232,2013-03-21 07:16:00,
2013-03-21 07:21:00,34.8,33.0,30.02,SE,128,3.0,5.0,93,0.00,,,0.00,67,WeatherCatV1.14B232,2013-03-21 07:21:00,
2013-03-21 07:26:00,34.9,33.1,30.02,SE,128,2.0,3.0,93,0.00,,,0.00,69,WeatherCatV1.14B232,2013-03-21 07:26:00,
2013-03-21 07:31:00,35.1,33.0,30.02,SE,127,4.0,5.0,92,0.00,,,0.00,67,WeatherCatV1.14B232,2013-03-21 07:31:00,
2013-03-21 07:36:00,35.2,33.1,30.02,SE,142,4.0,5.0,92,0.00,,,0.00,72,WeatherCatV1.14B232,2013-03-21 07:36:00,
2013-03-21 07:41:00,35.3,33.2,30.02,SE,129,3.0,4.0,92,0.00,,,0.00,81,WeatherCatV1.14B232,2013-03-21 07:41:00,
2013-03-21 07:46:00,35.4,33.3,30.02,ESE,118,3.0,6.0,92,0.00,,,0.00,91,WeatherCatV1.14B232,2013-03-21 07:46:00,
2013-03-21 07:51:00,35.6,33.5,30.02,ESE,123,4.0,7.0,92,0.00,,,0.00,95,WeatherCatV1.14B232,2013-03-21 07:51:00,
2013-03-21 07:56:00,35.9,33.8,30.02,SE,138,2.0,7.0,92,0.00,,,0.00,77,WeatherCatV1.14B232,2013-03-21 07:56:00,
2013-03-21 08:01:00,36.0,33.6,30.02,SE,125,4.0,8.0,91,0.00,,,0.00,100,WeatherCatV1.14B232,2013-03-21 08:01:00,
2013-03-21 08:06:00,36.1,33.7,30.02,SE,132,2.0,5.0,91,0.00,,,0.00,91,WeatherCatV1.14B232,2013-03-21 08:06:00,
2013-03-21 08:11:00,36.3,33.7,30.02,SE,128,2.0,6.0,90,0.00,,,0.00,97,WeatherCatV1.14B232,2013-03-21 08:11:00,
2013-03-21 08:16:00,36.5,33.9,30.02,SE,128,5.0,7.0,90,0.00,,,0.00,105,WeatherCatV1.14B232,2013-03-21 08:16:00,
2013-03-21 08:21:00,36.7,34.0,30.02,SE,130,1.0,3.0,90,0.00,,,0.00,160,WeatherCatV1.14B232,2013-03-21 08:21:00,
2013-03-21 08:26:00,37.0,34.1,30.02,East,93,7.0,9.0,89,0.00,,,0.00,174,WeatherCatV1.14B232,2013-03-21 08:26:00,
2013-03-21 08:31:00,37.3,34.4,30.02,SE,126,8.0,8.0,89,0.00,,,0.00,221,WeatherCatV1.14B232,2013-03-21 08:31:00,
2013-03-21 08:36:00,37.6,34.4,30.02,ESE,123,7.0,8.0,88,0.00,,,0.00,281,WeatherCatV1.14B232,2013-03-21 08:36:00,
2013-03-21 08:41:00,38.0,34.5,30.01,SSE,150,1.0,7.0,87,0.00,,,0.00,257,WeatherCatV1.14B232,2013-03-21 08:41:00,
2013-03-21 08:46:00,38.5,35.0,30.02,SSE,149,7.0,7.0,87,0.00,,,0.00,353,WeatherCatV1.14B232,2013-03-21 08:46:00,
2013-03-21 08:51:00,39.0,34.9,30.01,ESE,122,7.0,10.0,85,0.00,,,0.00,355,WeatherCatV1.14B232,2013-03-21 08:51:00,
2013-03-21 08:56:00,39.3,34.3,30.02,SE,127,5.0,13.0,82,0.00,,,0.00,376,WeatherCatV1.14B232,2013-03-21 08:56:00,
2013-03-21 09:01:00,39.7,35.0,30.02,SE,128,5.0,8.0,83,0.00,,,0.00,367,WeatherCatV1.14B232,2013-03-21 09:01:00,
2013-03-21 09:06:00,39.8,34.1,30.02,SSE,161,8.0,13.0,80,0.00,,,0.00,345,WeatherCatV1.14B232,2013-03-21 09:06:00,
2013-03-21 09:11:00,39.8,34.1,30.02,ESE,109,9.0,14.0,80,0.00,,,0.00,339,WeatherCatV1.14B232,2013-03-21 09:11:00,
2013-03-21 09:16:00,39.5,33.8,30.01,ESE,123,5.0,12.0,80,0.00,,,0.00,352,WeatherCatV1.14B232,2013-03-21 09:16:00,
2013-03-21 09:21:00,39.9,34.2,30.01,SE,132,5.0,8.0,80,0.00,,,0.00,374,WeatherCatV1.14B232,2013-03-21 09:21:00,
2013-03-21 09:26:00,40.2,34.5,30.01,SE,124,4.0,9.0,80,0.00,,,0.00,482,WeatherCatV1.14B232,2013-03-21 09:26:00,
2013-03-21 09:31:00,40.5,34.5,30.01,SE,135,5.0,11.0,79,0.00,,,0.00,278,WeatherCatV1.14B232,2013-03-21 09:31:00,
2013-03-21 09:36:00,40.8,35.1,30.01,SE,127,2.0,3.0,80,0.00,,,0.00,311,WeatherCatV1.14B232,2013-03-21 09:36:00,
2013-03-21 09:41:00,40.8,34.8,30.01,SE,136,3.0,9.0,79,0.00,,,0.00,225,WeatherCatV1.14B232,2013-03-21 09:41:00,
2013-03-21 09:46:00,40.8,34.8,30.01,ESE,122,4.0,8.0,79,0.00,,,0.00,232,WeatherCatV1.14B232,2013-03-21 09:46:00,
2013-03-21 09:51:00,40.6,34.3,30.01,SE,132,5.0,13.0,78,0.00,,,0.00,267,WeatherCatV1.14B232,2013-03-21 09:51:00,
2013-03-21 09:56:00,40.6,34.6,30.01,ESE,123,8.0,12.0,79,0.00,,,0.00,278,WeatherCatV1.14B232,2013-03-21 09:56:00,
2013-03-21 10:01:00,40.9,34.9,30.02,SE,126,5.0,10.0,79,0.00,,,0.00,290,WeatherCatV1.14B232,2013-03-21 10:01:00,
2013-03-21 10:06:00,40.9,34.6,30.02,ESE,121,4.0,11.0,78,0.00,,,0.00,271,WeatherCatV1.14B232,2013-03-21 10:06:00,
2013-03-21 10:11:00,40.8,34.5,30.02,SE,134,4.0,12.0,78,0.00,,,0.00,281,WeatherCatV1.14B232,2013-03-21 10:11:00,
2013-03-21 10:16:00,41.0,35.0,30.02,SE,130,5.0,11.0,79,0.00,,,0.00,274,WeatherCatV1.14B232,2013-03-21 10:16:00,
2013-03-21 10:21:00,41.1,34.8,30.02,SE,126,10.0,12.0,78,0.00,,,0.00,285,WeatherCatV1.14B232,2013-03-21 10:21:00,
2013-03-21 10:26:00,41.1,34.8,30.01,SE,125,11.0,13.0,78,0.00,,,0.00,272,WeatherCatV1.14B232,2013-03-21 10:26:00,
2013-03-21 10:31:00,41.2,35.2,30.01,SE,128,4.0,7.0,79,0.00,,,0.00,248,WeatherCatV1.14B232,2013-03-21 10:31:00,
2013-03-21 10:36:00,41.5,35.5,30.01,SE,129,4.0,9.0,79,0.00,,,0.00,323,WeatherCatV1.14B232,2013-03-21 10:36:00,
2013-03-21 10:41:00,41.7,35.4,30.01,SE,140,9.0,11.0,78,0.00,,,0.00,285,WeatherCatV1.14B232,2013-03-21 10:41:00,
2013-03-21 10:46:00,41.5,35.2,30.01,SE,132,3.0,9.0,78,0.00,,,0.00,227,WeatherCatV1.14B232,2013-03-21 10:46:00,
2013-03-21 10:51:00,41.4,35.1,30.01,ESE,120,7.0,12.0,78,0.00,,,0.00,292,WeatherCatV1.14B232,2013-03-21 10:51:00,
2013-03-21 10:56:00,41.5,35.5,30.00,ESE,122,11.0,13.0,79,0.00,,,0.00,269,WeatherCatV1.14B232,2013-03-21 10:56:00,
2013-03-21 11:01:00,41.8,35.8,30.00,SE,131,6.0,10.0,79,0.00,,,0.00,276,WeatherCatV1.14B232,2013-03-21 11:01:00,
2013-03-21 11:06:00,42.2,35.8,30.00,ESE,115,12.0,14.0,78,0.00,,,0.00,355,WeatherCatV1.14B232,2013-03-21 11:06:00,
2013-03-21 11:11:00,42.5,35.8,30.00,SE,128,8.0,10.0,77,0.00,,,0.00,371,WeatherCatV1.14B232,2013-03-21 11:11:00,
2013-03-21 11:16:00,42.9,35.9,30.01,SE,130,5.0,9.0,76,0.00,,,0.00,392,WeatherCatV1.14B232,2013-03-21 11:16:00,
2013-03-21 11:21:00,43.3,35.9,30.01,SE,132,7.0,16.0,75,0.00,,,0.00,236,WeatherCatV1.14B232,2013-03-21 11:21:00,
2013-03-21 11:26:00,43.1,35.7,30.00,SE,126,6.0,13.0,75,0.00,,,0.00,218,WeatherCatV1.14B232,2013-03-21 11:26:00,
2013-03-21 11:31:00,42.8,35.8,30.01,SE,136,6.0,6.0,76,0.00,,,0.00,190,WeatherCatV1.14B232,2013-03-21 11:31:00,
2013-03-21 11:36:00,42.9,35.9,30.00,SSE,157,8.0,14.0,76,0.00,,,0.00,244,WeatherCatV1.14B232,2013-03-21 11:36:00,
2013-03-21 11:41:00,42.7,35.3,30.00,SE,142,6.0,9.0,75,0.00,,,0.00,339,WeatherCatV1.14B232,2013-03-21 11:41:00,
2013-03-21 11:46:00,42.7,35.3,30.00,SE,133,6.0,11.0,75,0.00,,,0.00,276,WeatherCatV1.14B232,2013-03-21 11:46:00,
2013-03-21 11:51:00,42.6,35.2,30.00,SE,134,4.0,16.0,75,0.00,,,0.00,297,WeatherCatV1.14B232,2013-03-21 11:51:00,
2013-03-21 11:56:00,42.7,35.3,30.00,SE,132,3.0,9.0,75,0.00,,,0.00,257,WeatherCatV1.14B232,2013-03-21 11:56:00,
2013-03-21 12:01:00,42.9,35.2,30.00,SE,132,8.0,12.0,74,0.00,,,0.00,243,WeatherCatV1.14B232,2013-03-21 12:01:00,
2013-03-21 12:06:00,43.0,35.3,30.00,SE,129,8.0,11.0,74,0.00,,,0.00,250,WeatherCatV1.14B232,2013-03-21 12:06:00,
2013-03-21 12:11:00,42.8,35.1,30.00,SE,139,2.0,9.0,74,0.00,,,0.00,229,WeatherCatV1.14B232,2013-03-21 12:11:00,
2013-03-21 12:16:00,42.8,35.4,30.01,SW,216,3.0,10.0,75,0.00,,,0.00,255,WeatherCatV1.14B232,2013-03-21 12:16:00,
2013-03-21 12:21:00,43.1,35.7,30.00,SE,146,5.0,9.0,75,0.00,,,0.00,276,WeatherCatV1.14B232,2013-03-21 12:21:00,
2013-03-21 12:26:00,42.9,35.2,30.00,ESE,120,10.0,11.0,74,0.00,,,0.00,229,WeatherCatV1.14B232,2013-03-21 12:26:00,
2013-03-21 12:31:00,43.0,35.6,30.00,SW,227,4.0,7.0,75,0.00,,,0.00,200,WeatherCatV1.14B232,2013-03-21 12:31:00,
2013-03-21 12:36:00,43.0,35.6,30.00,SSE,149,6.0,10.0,75,0.00,,,0.00,229,WeatherCatV1.14B232,2013-03-21 12:36:00,
2013-03-21 12:41:00,43.2,35.8,30.00,SE,126,7.0,11.0,75,0.00,,,0.00,206,WeatherCatV1.14B232,2013-03-21 12:41:00,
2013-03-21 12:46:00,43.3,35.9,30.00,SE,126,8.0,8.0,75,0.00,,,0.00,171,WeatherCatV1.14B232,2013-03-21 12:46:00,
2013-03-21 12:51:00,43.4,36.0,30.00,SE,126,9.0,13.0,75,0.00,,,0.00,200,WeatherCatV1.14B232,2013-03-21 12:51:00,
2013-03-21 12:56:00,43.1,35.7,30.00,SE,132,4.0,10.0,75,0.00,,,0.00,172,WeatherCatV1.14B232,2013-03-21 12:56:00,
2013-03-21 13:01:00,43.0,36.0,30.00,ESE,123,9.0,9.0,76,0.00,,,0.00,148,WeatherCatV1.14B232,2013-03-21 13:01:00,
2013-03-21 13:06:00,43.2,36.2,30.00,SE,132,6.0,7.0,76,0.00,,,0.00,218,WeatherCatV1.14B232,2013-03-21 13:06:00,
2013-03-21 13:11:00,43.4,36.3,30.00,SE,130,7.0,9.0,76,0.00,,,0.00,209,WeatherCatV1.14B232,2013-03-21 13:11:00,
2013-03-21 13:16:00,43.3,35.6,29.99,ESE,123,8.0,13.0,74,0.00,,,0.00,162,WeatherCatV1.14B232,2013-03-21 13:16:00,
2013-03-21 13:21:00,43.1,35.7,29.99,SE,127,4.0,12.0,75,0.00,,,0.00,167,WeatherCatV1.14B232,2013-03-21 13:21:00,
2013-03-21 13:26:00,43.2,35.8,29.99,SE,134,7.0,13.0,75,0.00,,,0.00,192,WeatherCatV1.14B232,2013-03-21 13:26:00,
2013-03-21 13:31:00,43.4,36.0,29.99,SE,127,10.0,12.0,75,0.00,,,0.00,206,WeatherCatV1.14B232,2013-03-21 13:31:00,
2013-03-21 13:36:00,43.2,35.5,29.99,ESE,103,4.0,13.0,74,0.00,,,0.00,216,WeatherCatV1.14B232,2013-03-21 13:36:00,
2013-03-21 13:41:00,43.2,35.5,29.99,SE,144,8.0,12.0,74,0.00,,,0.00,214,WeatherCatV1.14B232,2013-03-21 13:41:00,
2013-03-21 13:46:00,43.1,35.4,29.99,SE,131,7.0,11.0,74,0.00,,,0.00,209,WeatherCatV1.14B232,2013-03-21 13:46:00,
2013-03-21 13:51:00,42.9,35.2,29.98,SE,124,9.0,9.0,74,0.00,,,0.00,236,WeatherCatV1.14B232,2013-03-21 13:51:00,
2013-03-21 13:56:00,42.9,35.2,29.98,ESE,120,10.0,16.0,74,0.00,,,0.00,237,WeatherCatV1.14B232,2013-03-21 13:56:00,
2013-03-21 14:01:00,42.9,35.2,29.98,WNW,297,6.0,10.0,74,0.00,,,0.00,234,WeatherCatV1.14B232,2013-03-21 14:01:00,
2013-03-21 14:06:00,43.1,35.7,29.98,SE,128,2.0,14.0,75,0.00,,,0.00,244,WeatherCatV1.14B232,2013-03-21 14:06:00,
2013-03-21 14:11:00,43.3,35.6,29.98,SE,129,5.0,10.0,74,0.00,,,0.00,255,WeatherCatV1.14B232,2013-03-21 14:11:00,
2013-03-21 14:16:00,43.5,35.4,29.98,SE,131,3.0,11.0,73,0.00,,,0.00,232,WeatherCatV1.14B232,2013-03-21 14:16:00,
2013-03-21 14:21:00,43.4,35.3,29.98,SSE,163,7.0,14.0,73,0.00,,,0.00,237,WeatherCatV1.14B232,2013-03-21 14:21:00,
2013-03-21 14:26:00,43.3,35.2,29.98,SE,128,8.0,14.0,73,0.00,,,0.00,225,WeatherCatV1.14B232,2013-03-21 14:26:00,
2013-03-21 14:31:00,43.1,35.0,29.97,SE,140,10.0,10.0,73,0.00,,,0.00,253,WeatherCatV1.14B232,2013-03-21 14:31:00,
2013-03-21 14:36:00,43.1,35.0,29.98,SE,128,9.0,11.0,73,0.00,,,0.00,243,WeatherCatV1.14B232,2013-03-21 14:36:00,
2013-03-21 14:41:00,43.6,35.5,29.98,ESE,114,9.0,16.0,73,0.00,,,0.00,241,WeatherCatV1.14B232,2013-03-21 14:41:00,
2013-03-21 14:46:00,43.6,35.5,29.98,SE,144,5.0,11.0,73,0.00,,,0.00,220,WeatherCatV1.14B232,2013-03-21 14:46:00,
2013-03-21 14:51:00,43.4,35.0,29.97,SE,128,7.0,15.0,72,0.00,,,0.00,209,WeatherCatV1.14B232,2013-03-21 14:51:00,
2013-03-21 14:56:00,43.3,34.9,29.97,SE,140,6.0,14.0,72,0.00,,,0.00,193,WeatherCatV1.14B232,2013-03-21 14:56:00,
2013-03-21 15:01:00,43.3,34.9,29.97,SE,127,9.0,16.0,72,0.00,,,0.00,183,WeatherCatV1.14B232,2013-03-21 15:01:00,
2013-03-21 15:06:00,43.0,34.6,29.97,SE,125,6.0,15.0,72,0.00,,,0.00,169,WeatherCatV1.14B232,2013-03-21 15:06:00,
2013-03-21 15:11:00,43.1,34.7,29.97,SE,136,7.0,8.0,72,0.00,,,0.00,162,WeatherCatV1.14B232,2013-03-21 15:11:00,
2013-03-21 15:16:00,43.2,35.1,29.97,SE,131,5.0,8.0,73,0.00,,,0.00,158,WeatherCatV1.14B232,2013-03-21 15:16:00,
2013-03-21 15:21:00,43.1,34.7,29.97,SE,134,9.0,17.0,72,0.00,,,0.00,155,WeatherCatV1.14B232,2013-03-21 15:21:00,
2013-03-21 15:26:00,42.9,34.5,29.97,SE,134,6.0,13.0,72,0.00,,,0.00,160,WeatherCatV1.14B232,2013-03-21 15:26:00,
2013-03-21 15:31:00,42.8,34.8,29.97,SE,124,8.0,10.0,73,0.00,,,0.00,160,WeatherCatV1.14B232,2013-03-21 15:31:00,
2013-03-21 15:36:00,42.9,34.5,29.96,SE,129,6.0,12.0,72,0.00,,,0.00,153,WeatherCatV1.14B232,2013-03-21 15:36:00,
2013-03-21 15:41:00,42.8,34.4,29.97,SE,144,9.0,10.0,72,0.00,,,0.00,142,WeatherCatV1.14B232,2013-03-21 15:41:00,
2013-03-21 15:46:00,42.6,34.2,29.96,ESE,120,8.0,11.0,72,0.00,,,0.00,128,WeatherCatV1.14B232,2013-03-21 15:46:00,
2013-03-21 15:51:00,42.4,34.0,29.96,ESE,121,8.0,15.0,72,0.00,,,0.00,120,WeatherCatV1.14B232,2013-03-21 15:51:00,
2013-03-21 15:56:00,42.4,34.4,29.96,SE,124,7.0,12.0,73,0.00,,,0.00,139,WeatherCatV1.14B232,2013-03-21 15:56:00,
2013-03-21 16:01:00,42.3,33.9,29.96,ESE,119,8.0,11.0,72,0.00,,,0.00,128,WeatherCatV1.14B232,2013-03-21 16:01:00,
2013-03-21 16:06:00,42.2,34.2,29.96,SE,146,7.0,12.0,73,0.00,,,0.00,118,WeatherCatV1.14B232,2013-03-21 16:06:00,
2013-03-21 16:11:00,42.1,34.1,29.96,ESE,123,13.0,15.0,73,0.00,,,0.00,109,WeatherCatV1.14B232,2013-03-21 16:11:00,
2013-03-21 16:16:00,42.1,34.1,29.96,ESE,123,5.0,14.0,73,0.00,,,0.00,88,WeatherCatV1.14B232,2013-03-21 16:16:00,
2013-03-21 16:21:00,42.1,34.1,29.96,SE,128,6.0,11.0,73,0.00,,,0.00,93,WeatherCatV1.14B232,2013-03-21 16:21:00,
2013-03-21 16:26:00,41.9,33.9,29.96,ESE,111,7.0,14.0,73,0.00,,,0.00,93,WeatherCatV1.14B232,2013-03-21 16:26:00,
2013-03-21 16:31:00,41.8,33.4,29.96,SE,135,3.0,16.0,72,0.00,,,0.00,88,WeatherCatV1.14B232,2013-03-21 16:31:00,
2013-03-21 16:36:00,41.7,33.3,29.96,SE,131,6.0,16.0,72,0.00,,,0.00,95,WeatherCatV1.14B232,2013-03-21 16:36:00,
2013-03-21 16:41:00,41.7,33.3,29.96,SE,128,9.0,15.0,72,0.00,,,0.00,105,WeatherCatV1.14B232,2013-03-21 16:41:00,
2013-03-21 16:46:00,41.6,33.3,29.96,SE,132,7.0,10.0,72,0.00,,,0.00,104,WeatherCatV1.14B232,2013-03-21 16:46:00,
2013-03-21 16:51:00,41.5,33.2,29.96,SE,133,7.0,12.0,72,0.00,,,0.00,116,WeatherCatV1.14B232,2013-03-21 16:51:00,
2013-03-21 16:56:00,41.5,33.2,29.95,SE,133,8.0,14.0,72,0.00,,,0.00,104,WeatherCatV1.14B232,2013-03-21 16:56:00,
2013-03-21 17:01:00,41.4,32.7,29.96,SE,130,5.0,10.0,71,0.00,,,0.00,83,WeatherCatV1.14B232,2013-03-21 17:01:00,
2013-03-21 17:06:00,41.3,32.6,29.96,SSE,148,9.0,17.0,71,0.00,,,0.01,67,WeatherCatV1.14B232,2013-03-21 17:06:00,
2013-03-21 17:11:00,41.0,32.7,29.95,SE,126,7.0,15.0,72,0.00,,,0.01,54,WeatherCatV1.14B232,2013-03-21 17:11:00,
2013-03-21 17:16:00,40.8,32.5,29.96,ESE,119,9.0,14.0,72,0.00,,,0.01,42,WeatherCatV1.14B232,2013-03-21 17:16:00,
2013-03-21 17:21:00,40.7,32.7,29.96,ESE,123,9.0,14.0,73,0.00,,,0.01,33,WeatherCatV1.14B232,2013-03-21 17:21:00,
2013-03-21 17:26:00,40.6,32.6,29.96,SE,138,5.0,17.0,73,0.00,,,0.01,32,WeatherCatV1.14B232,2013-03-21 17:26:00,
2013-03-21 17:31:00,40.5,32.5,29.96,SE,135,5.0,14.0,73,0.00,,,0.01,26,WeatherCatV1.14B232,2013-03-21 17:31:00,
2013-03-21 17:36:00,40.4,32.4,29.96,ESE,117,13.0,14.0,73,0.00,,,0.01,21,WeatherCatV1.14B232,2013-03-21 17:36:00,
2013-03-21 17:41:00,40.3,32.3,29.96,SE,136,12.0,16.0,73,0.00,,,0.01,19,WeatherCatV1.14B232,2013-03-21 17:41:00,
2013-03-21 17:46:00,40.2,32.2,29.95,ENE,73,12.0,13.0,73,0.00,,,0.01,18,WeatherCatV1.14B232,2013-03-21 17:46:00,
2013-03-21 17:51:00,40.2,32.2,29.96,SE,129,6.0,16.0,73,0.00,,,0.01,12,WeatherCatV1.14B232,2013-03-21 17:51:00,
2013-03-21 17:56:00,40.1,32.2,29.95,SE,125,17.0,17.0,73,0.00,,,0.01,11,WeatherCatV1.14B232,2013-03-21 17:56:00,
2013-03-21 18:01:00,40.1,32.2,29.95,SE,138,5.0,8.0,73,0.00,,,0.01,7,WeatherCatV1.14B232,2013-03-21 18:01:00,
2013-03-21 18:06:00,40.0,32.1,29.95,ESE,108,12.0,19.0,73,0.00,,,0.01,0,WeatherCatV1.14B232,2013-03-21 18:06:00,
2013-03-21 18:11:00,39.9,32.3,29.96,SE,132,5.0,15.0,74,0.00,,,0.01,0,WeatherCatV1.14B232,2013-03-21 18:11:00,
2013-03-21 18:16:00,39.8,32.2,29.96,SE,132,11.0,15.0,74,0.00,,,0.01,0,WeatherCatV1.14B232,2013-03-21 18:16:00,
2013-03-21 18:21:00,39.8,32.5,29.96,ESE,115,8.0,21.0,75,0.00,,,0.01,0,WeatherCatV1.14B232,2013-03-21 18:21:00,
2013-03-21 18:26:00,39.7,32.4,29.95,ESE,105,13.0,14.0,75,0.00,,,0.01,0,WeatherCatV1.14B232,2013-03-21 18:26:00,
2013-03-21 18:31:00,39.6,32.3,29.95,ESE,122,12.0,20.0,75,0.00,,,0.01,0,WeatherCatV1.14B232,2013-03-21 18:31:00,
2013-03-21 18:36:00,39.5,32.6,29.96,SE,126,7.0,16.0,76,0.00,,,0.01,0,WeatherCatV1.14B232,2013-03-21 18:36:00,
2013-03-21 18:41:00,39.5,32.6,29.96,SSW,207,12.0,16.0,76,0.00,,,0.01,0,WeatherCatV1.14B232,2013-03-21 18:41:00,
2013-03-21 18:46:00,39.3,32.4,29.95,SE,126,10.0,16.0,76,0.00,,,0.01,0,WeatherCatV1.14B232,2013-03-21 18:46:00,
2013-03-21 18:51:00,39.3,32.4,29.96,ESE,122,10.0,13.0,76,0.00,,,0.01,0,WeatherCatV1.14B232,2013-03-21 18:51:00,
2013-03-21 18:56:00,39.2,32.3,29.96,ESE,114,21.0,21.0,76,0.00,,,0.01,0,WeatherCatV1.14B232,2013-03-21 18:56:00,
2013-03-21 19:01:00,39.1,31.9,29.96,SE,136,13.0,22.0,75,0.00,,,0.01,0,WeatherCatV1.14B232,2013-03-21 19:01:00,
2013-03-21 19:06:00,39.0,32.1,29.96,ESE,121,9.0,17.0,76,0.00,,,0.01,0,WeatherCatV1.14B232,2013-03-21 19:06:00,
2013-03-21 19:11:00,39.0,31.8,29.96,SE,140,12.0,17.0,75,0.00,,,0.01,0,WeatherCatV1.14B232,2013-03-21 19:11:00,
2013-03-21 19:16:00,39.0,31.8,29.96,ESE,122,9.0,21.0,75,0.00,,,0.01,0,WeatherCatV1.14B232,2013-03-21 19:16:00,
2013-03-21 19:21:00,38.9,32.0,29.96,SE,129,5.0,19.0,76,0.00,,,0.01,0,WeatherCatV1.14B232,2013-03-21 19:21:00,
2013-03-21 19:26:00,38.9,32.0,29.96,SE,125,15.0,17.0,76,0.00,,,0.01,0,WeatherCatV1.14B232,2013-03-21 19:26:00,
2013-03-21 19:31:00,38.9,32.0,29.96,ESE,113,7.0,19.0,76,0.00,,,0.01,0,WeatherCatV1.14B232,2013-03-21 19:31:00,
2013-03-21 19:36:00,38.9,32.0,29.96,SE,131,11.0,16.0,76,0.00,,,0.01,0,WeatherCatV1.14B232,2013-03-21 19:36:00,
2013-03-21 19:41:00,38.9,32.0,29.96,SE,145,12.0,12.0,76,0.00,,,0.01,0,WeatherCatV1.14B232,2013-03-21 19:41:00,
2013-03-21 19:46:00,38.9,32.0,29.96,ESE,123,9.0,14.0,76,0.00,,,0.01,0,WeatherCatV1.14B232,2013-03-21 19:46:00,
2013-03-21 19:51:00,38.9,32.0,29.96,ESE,117,13.0,18.0,76,0.00,,,0.01,0,WeatherCatV1.14B232,2013-03-21 19:51:00,
2013-03-21 19:56:00,38.9,32.0,29.96,SSE,148,1.0,16.0,76,0.00,,,0.01,0,WeatherCatV1.14B232,2013-03-21 19:56:00,
2013-03-21 20:01:00,38.9,32.3,29.96,ESE,109,10.0,18.0,77,0.00,,,0.01,0,WeatherCatV1.14B232,2013-03-21 20:01:00,
2013-03-21 20:06:00,38.9,32.3,29.96,SE,131,7.0,14.0,77,0.00,,,0.01,0,WeatherCatV1.14B232,2013-03-21 20:06:00,
2013-03-21 20:11:00,38.9,32.3,29.96,ESE,121,11.0,16.0,77,0.00,,,0.01,0,WeatherCatV1.14B232,2013-03-21 20:11:00,
2013-03-21 20:16:00,38.9,32.3,29.96,SE,124,6.0,14.0,77,0.00,,,0.01,0,WeatherCatV1.14B232,2013-03-21 20:16:00,
2013-03-21 20:21:00,39.0,32.7,29.96,SE,124,6.0,9.0,78,0.00,,,0.01,0,WeatherCatV1.14B232,2013-03-21 20:21:00,
2013-03-21 20:26:00,39.0,32.7,29.96,SE,124,11.0,16.0,78,0.00,,,0.01,0,WeatherCatV1.14B232,2013-03-21 20:26:00,
2013-03-21 20:31:00,39.0,33.0,29.96,SE,136,9.0,17.0,79,0.00,,,0.01,0,WeatherCatV1.14B232,2013-03-21 20:31:00,
2013-03-21 20:36:00,39.0,33.0,29.95,ESE,119,9.0,12.0,79,0.00,,,0.01,0,WeatherCatV1.14B232,2013-03-21 20:36:00,
2013-03-21 20:41:00,39.0,33.4,29.95,East,100,10.0,15.0,80,0.00,,,0.01,0,WeatherCatV1.14B232,2013-03-21 20:41:00,
2013-03-21 20:46:00,39.0,33.7,29.95,SE,128,4.0,14.0,81,0.00,,,0.01,0,WeatherCatV1.14B232,2013-03-21 20:46:00,
2013-03-21 20:50:00,39.0,33.7,29.95,SE,130,9.0,16.0,81,0.00,,,0.00,0,WeatherCatV1.14B232,2013-03-21 20:50:00,
2013-03-21 20:55:00,38.9,33.9,29.95,SE,127,9.0,11.0,82,0.00,,,0.00,0,WeatherCatV1.14B232,2013-03-21 20:55:00,
2013-03-21 21:00:00,38.9,34.2,29.95,SE,127,9.0,10.0,83,0.00,,,0.00,0,WeatherCatV1.14B232,2013-03-21 21:00:00,
2013-03-21 21:05:00,38.8,34.4,29.95,SE,126,8.0,8.0,84,0.00,,,0.00,0,WeatherCatV1.14B232,2013-03-21 21:05:00,
2013-03-21 21:10:00,38.8,34.4,29.95,SE,129,7.0,12.0,84,0.00,,,0.00,0,WeatherCatV1.14B232,2013-03-21 21:10:00,
2013-03-21 21:15:00,38.8,34.7,29.95,SE,129,8.0,14.0,85,0.00,,,0.00,0,WeatherCatV1.14B232,2013-03-21 21:15:00,
2013-03-21 21:20:00,38.7,34.6,29.95,SE,124,9.0,14.0,85,0.00,,,0.00,0,WeatherCatV1.14B232,2013-03-21 21:20:00,
2013-03-21 21:34:00,38.7,34.9,29.94,SE,125,9.0,12.0,86,0.00,,,0.00,0,WeatherCatV1.14B232,2013-03-21 21:34:00,
2013-03-21 21:39:00,38.7,34.9,29.94,SE,131,4.0,16.0,86,0.00,,,0.01,0,WeatherCatV1.14B232,2013-03-21 21:39:00,
2013-03-21 21:44:00,38.7,34.9,29.94,SE,144,10.0,15.0,86,0.00,,,0.01,0,WeatherCatV1.14B232,2013-03-21 21:44:00,
2013-03-21 21:49:00,38.7,34.9,29.94,ESE,121,9.0,22.0,86,0.00,,,0.01,0,WeatherCatV1.14B232,2013-03-21 21:49:00,
2013-03-21 21:54:00,38.7,34.9,29.94,SE,132,6.0,17.0,86,0.00,,,0.01,0,WeatherCatV1.14B232,2013-03-21 21:54:00,
2013-03-21 21:59:00,38.6,35.1,29.94,South,180,5.0,17.0,87,0.00,,,0.01,0,WeatherCatV1.14B232,2013-03-21 21:59:00,
2013-03-21 22:04:00,38.6,35.1,29.94,SSE,147,7.0,13.0,87,0.00,,,0.01,0,WeatherCatV1.14B232,2013-03-21 22:04:00,
2013-03-21 22:09:00,38.6,35.1,29.94,SE,130,7.0,9.0,87,0.00,,,0.01,0,WeatherCatV1.14B232,2013-03-21 22:09:00,
2013-03-21 22:14:00,38.5,35.3,29.94,ESE,113,12.0,13.0,88,0.00,,,0.01,0,WeatherCatV1.14B232,2013-03-21 22:14:00,
2013-03-21 22:19:00,38.5,35.3,29.94,ESE,121,5.0,13.0,88,0.00,,,0.01,0,WeatherCatV1.14B232,2013-03-21 22:19:00,
2013-03-21 22:24:00,38.5,35.3,29.94,SE,134,14.0,18.0,88,0.00,,,0.01,0,WeatherCatV1.14B232,2013-03-21 22:24:00,
2013-03-21 22:29:00,38.5,35.3,29.94,ESE,121,11.0,11.0,88,0.00,,,0.01,0,WeatherCatV1.14B232,2013-03-21 22:29:00,
2013-03-21 22:34:00,38.5,35.3,29.94,SE,124,9.0,20.0,88,0.00,,,0.01,0,WeatherCatV1.14B232,2013-03-21 22:34:00,
2013-03-21 22:39:00,38.4,35.2,29.94,SE,135,7.0,14.0,88,0.00,,,0.01,0,WeatherCatV1.14B232,2013-03-21 22:39:00,
2013-03-21 22:44:00,38.3,35.1,29.94,ESE,107,12.0,17.0,88,0.00,,,0.01,0,WeatherCatV1.14B232,2013-03-21 22:44:00,
2013-03-21 22:49:00,38.3,35.1,29.93,SE,132,4.0,13.0,88,0.00,,,0.01,0,WeatherCatV1.14B232,2013-03-21 22:49:00,
2013-03-21 22:54:00,38.2,35.0,29.93,East,94,11.0,15.0,88,0.00,,,0.01,0,WeatherCatV1.14B232,2013-03-21 22:54:00,
2013-03-21 22:59:00,38.2,35.0,29.93,SE,133,8.0,13.0,88,0.00,,,0.01,0,WeatherCatV1.14B232,2013-03-21 22:59:00,
2013-03-21 23:04:00,38.2,35.0,29.93,SE,126,11.0,18.0,88,0.00,,,0.01,0,WeatherCatV1.14B232,2013-03-21 23:04:00,
2013-03-21 23:09:00,38.1,34.9,29.93,SE,136,7.0,12.0,88,0.00,,,0.01,0,WeatherCatV1.14B232,2013-03-21 23:09:00,
2013-03-21 23:14:00,38.1,34.9,29.93,ESE,120,8.0,15.0,88,0.00,,,0.01,0,WeatherCatV1.14B232,2013-03-21 23:14:00,
2013-03-21 23:19:00,38.1,34.9,29.93,East,94,11.0,17.0,88,0.00,,,0.01,0,WeatherCatV1.14B232,2013-03-21 23:19:00,
2013-03-21 23:24:00,38.0,34.8,29.93,ESE,115,16.0,16.0,88,0.00,,,0.01,0,WeatherCatV1.14B232,2013-03-21 23:24:00,
2013-03-21 23:29:00,38.0,34.8,29.92,SE,125,8.0,14.0,88,0.00,,,0.02,0,WeatherCatV1.14B232,2013-03-21 23:29:00,
2013-03-21 23:34:00,37.9,34.7,29.92,SE,141,4.0,15.0,88,0.00,,,0.02,0,WeatherCatV1.14B232,2013-03-21 23:34:00,
2013-03-21 23:39:00,37.8,34.6,29.92,SE,130,9.0,18.0,88,0.00,,,0.02,0,WeatherCatV1.14B232,2013-03-21 23:39:00,
2013-03-21 23:44:00,37.7,34.5,29.92,SE,134,7.0,21.0,88,0.00,,,0.02,0,WeatherCatV1.14B232,2013-03-21 23:44:00,
2013-03-21 23:49:00,37.6,34.7,29.92,ESE,114,12.0,19.0,89,0.00,,,0.02,0,WeatherCatV1.14B232,2013-03-21 23:49:00,
2013-03-21 23:54:00,37.5,34.6,29.91,ESE,123,13.0,13.0,89,0.00,,,0.02,0,WeatherCatV1.14B232,2013-03-21 23:54:00,
2013-03-21 23:59:00,37.4,34.5,29.92,ESE,122,10.0,16.0,89,0.00,,,0.02,0,WeatherCatV1.14B232,2013-03-21 23:59:00,